Time;durP1;ratioP1;P1;durP2;ratioP2;P2;SDS_P1;SDS_P2;PMS_P1;PMS_P2;Temp;Humidity;BMP_temperature;BMP_pressure;BME280_temperature;BME280_humidity;BME280_pressure;Samples;Min_cycle;Max_cycle;Signal;HPM_P1;HPM_P2
2021/07/08 00:00:19;;;;;;;4.50;1.90;;;20.60;68.20;;;;;;5094577;28;20487;-67
2021/07/08 00:02:47;;;;;;;5.80;2.20;;;20.60;68.30;;;;;;5094599;28;20444;-67
2021/07/08 00:05:15;;;;;;;4.20;1.60;;;20.50;68.40;;;;;;5094454;28;20451;-67
2021/07/08 00:07:42;;;;;;;7.20;2.43;;;20.50;68.70;;;;;;5093681;28;20542;-67
2021/07/08 00:10:13;;;;;;;4.70;2.40;;;20.50;69.10;;;;;;5094133;28;20436;-67
2021/07/08 00:12:40;;;;;;;4.80;2.67;;;20.50;69.80;;;;;;5094172;28;20920;-67
2021/07/08 00:15:09;;;;;;;6.60;2.60;;;20.50;69.90;;;;;;5094101;28;20444;-67
2021/07/08 00:17:36;;;;;;;5.20;2.13;;;20.50;70.10;;;;;;5093929;28;20964;-67
2021/07/08 00:20:08;;;;;;;2.93;2.30;;;20.50;70.40;;;;;;5093893;28;20822;-67
2021/07/08 00:22:35;;;;;;;2.90;2.70;;;20.40;70.20;;;;;;5094313;28;20424;-67
2021/07/08 00:25:02;;;;;;;5.80;2.57;;;20.40;70.20;;;;;;5094180;28;20443;-67
2021/07/08 00:27:30;;;;;;;3.60;2.20;;;20.40;70.30;;;;;;5094142;28;20496;-67
2021/07/08 00:29:56;;;;;;;5.10;2.80;;;20.40;70.30;;;;;;5095150;28;20479;-67
2021/07/08 00:32:23;;;;;;;4.50;2.37;;;20.30;70.20;;;;;;5094079;28;20451;-67
2021/07/08 00:34:50;;;;;;;5.50;2.20;;;20.30;70.30;;;;;;5093716;28;20829;-67
2021/07/08 00:37:17;;;;;;;3.80;2.40;;;20.30;70.30;;;;;;5093698;28;20462;-67
2021/07/08 00:39:43;;;;;;;4.70;2.80;;;20.30;70.30;;;;;;5093906;28;20470;-67
2021/07/08 00:42:10;;;;;;;3.60;1.70;;;20.20;70.20;;;;;;5093905;28;20480;-67
2021/07/08 00:44:38;;;;;;;4.33;1.83;;;20.20;70.10;;;;;;5093864;28;20796;-67
2021/07/08 00:47:05;;;;;;;2.40;1.63;;;20.20;70.00;;;;;;5093824;28;20452;-67
2021/07/08 00:49:33;;;;;;;4.20;2.00;;;20.10;69.80;;;;;;5093425;28;20984;-67
2021/07/08 00:52:00;;;;;;;2.10;1.90;;;20.00;69.70;;;;;;5093788;28;20439;-67
2021/07/08 00:54:26;;;;;;;4.57;2.50;;;20.00;70.10;;;;;;5093451;28;20942;-67
2021/07/08 00:56:53;;;;;;;5.73;1.90;;;20.00;71.30;;;;;;5093751;28;20451;-67
2021/07/08 00:59:20;;;;;;;4.73;1.60;;;19.90;70.40;;;;;;5093604;28;20475;-67
2021/07/08 01:01:50;;;;;;;4.70;2.30;;;19.90;70.60;;;;;;5093591;28;20507;-67
2021/07/08 01:04:17;;;;;;;3.87;2.10;;;19.90;70.70;;;;;;5093666;28;20440;-67
2021/07/08 01:06:45;;;;;;;4.67;2.50;;;19.90;71.10;;;;;;5093449;28;20452;-67
2021/07/08 01:09:11;;;;;;;6.30;2.30;;;19.80;70.90;;;;;;5093552;28;20471;-67
2021/07/08 01:11:39;;;;;;;10.70;2.50;;;19.70;71.00;;;;;;5093570;28;20443;-67
2021/07/08 01:14:07;;;;;;;2.77;2.40;;;19.70;71.10;;;;;;5093535;28;20448;-67
2021/07/08 01:16:34;;;;;;;4.60;2.13;;;19.60;71.30;;;;;;5093564;28;20443;-67
2021/07/08 01:19:03;;;;;;;3.23;2.43;;;19.60;71.20;;;;;;5095318;28;20467;-67
2021/07/08 01:21:33;;;;;;;5.50;2.27;;;19.60;71.30;;;;;;5097662;28;20480;-67
2021/07/08 01:24:02;;;;;;;4.27;2.37;;;19.60;71.60;;;;;;5097743;28;20428;-67
2021/07/08 01:26:29;;;;;;;4.93;2.40;;;19.60;71.90;;;;;;5097683;28;20516;-67
2021/07/08 01:28:57;;;;;;;3.40;2.53;;;19.60;72.10;;;;;;5097220;28;20462;-67
2021/07/08 01:31:25;;;;;;;4.47;2.50;;;19.60;72.20;;;;;;5097537;28;20447;-67
2021/07/08 01:33:52;;;;;;;3.20;1.90;;;19.60;72.40;;;;;;5097148;28;20941;-67
2021/07/08 01:36:19;;;;;;;7.37;2.70;;;19.60;72.50;;;;;;5097412;28;20439;-67
2021/07/08 01:38:47;;;;;;;4.63;2.93;;;19.60;72.70;;;;;;5097004;28;20459;-67
2021/07/08 01:41:14;;;;;;;4.37;2.37;;;19.50;72.90;;;;;;5096963;28;20996;-67
2021/07/08 01:43:42;;;;;;;3.73;2.27;;;19.50;73.10;;;;;;5097083;28;20451;-67
2021/07/08 01:46:11;;;;;;;5.60;2.50;;;19.50;73.40;;;;;;5097272;28;20486;-67
2021/07/08 01:48:38;;;;;;;5.03;2.70;;;19.50;73.20;;;;;;5097173;28;20486;-67
2021/07/08 01:51:07;;;;;;;3.33;2.00;;;19.50;73.50;;;;;;5096860;28;20929;-67
2021/07/08 01:53:33;;;;;;;9.40;2.77;;;19.50;73.10;;;;;;5097125;28;20432;-67
2021/07/08 01:56:02;;;;;;;2.33;2.00;;;19.50;73.20;;;;;;5097061;28;20443;-66
2021/07/08 01:58:29;;;;;;;5.33;2.30;;;19.40;73.00;;;;;;5096681;28;20464;-67
2021/07/08 02:00:55;;;;;;;7.00;2.10;;;19.40;73.10;;;;;;5096616;28;20476;-67
2021/07/08 02:03:22;;;;;;;7.47;2.20;;;19.40;73.00;;;;;;5096873;28;20447;-67
2021/07/08 02:05:49;;;;;;;2.87;2.37;;;19.30;73.00;;;;;;5096865;28;20443;-67
2021/07/08 02:08:16;;;;;;;5.10;2.10;;;19.40;73.40;;;;;;5096505;28;20525;-67
2021/07/08 02:10:43;;;;;;;4.70;2.33;;;19.30;73.20;;;;;;5096758;28;20450;-67
2021/07/08 02:13:11;;;;;;;2.87;2.20;;;19.30;73.20;;;;;;5096785;28;20822;-67
2021/07/08 02:15:38;;;;;;;3.70;2.67;;;19.20;73.30;;;;;;5096389;28;20809;-67
2021/07/08 02:18:05;;;;;;;7.63;2.47;;;19.20;73.50;;;;;;5096590;28;20476;-67
2021/07/08 02:20:32;;;;;;;5.80;2.37;;;19.20;73.50;;;;;;5096515;28;20450;-67
2021/07/08 02:22:59;;;;;;;3.17;1.97;;;19.10;73.60;;;;;;5096603;28;20557;-67
2021/07/08 02:25:27;;;;;;;3.83;2.33;;;19.00;73.60;;;;;;5096515;28;20447;-67
2021/07/08 02:27:54;;;;;;;5.13;2.27;;;19.00;73.90;;;;;;5096395;28;20446;-67
2021/07/08 02:30:24;;;;;;;4.53;2.00;;;19.00;74.40;;;;;;5095969;28;20491;-67
2021/07/08 02:32:53;;;;;;;5.10;2.63;;;19.00;74.30;;;;;;5096430;28;20432;-67
2021/07/08 02:35:22;;;;;;;3.20;2.50;;;18.90;74.60;;;;;;5096395;28;20471;-67
2021/07/08 02:37:49;;;;;;;3.10;2.50;;;18.90;74.90;;;;;;5096251;28;20432;-67
2021/07/08 02:40:18;;;;;;;9.10;2.73;;;18.90;74.70;;;;;;5096281;28;20446;-67
2021/07/08 02:42:48;;;;;;;3.20;2.37;;;19.00;75.10;;;;;;5096119;28;20482;-67
2021/07/08 02:45:15;;;;;;;4.17;3.10;;;18.90;75.20;;;;;;5096157;28;20471;-67
2021/07/08 02:47:43;;;;;;;3.47;2.70;;;18.90;75.40;;;;;;5096113;28;20472;-67
2021/07/08 02:50:10;;;;;;;5.57;2.73;;;18.90;75.40;;;;;;5096620;28;20828;-67
2021/07/08 02:52:37;;;;;;;3.60;2.33;;;18.90;75.60;;;;;;5095789;28;20440;-67
2021/07/08 02:55:05;;;;;;;4.23;3.00;;;18.90;75.70;;;;;;5096826;28;20467;-67
2021/07/08 02:57:32;;;;;;;3.20;2.73;;;18.80;75.50;;;;;;5095899;28;20444;-67
2021/07/08 02:59:59;;;;;;;5.63;3.53;;;18.90;76.00;;;;;;5095784;28;20472;-67
2021/07/08 03:02:26;;;;;;;7.40;2.50;;;18.90;76.30;;;;;;5095754;28;20479;-67
2021/07/08 03:04:54;;;;;;;5.83;2.70;;;18.90;76.50;;;;;;5095801;28;20446;-67
2021/07/08 03:07:20;;;;;;;6.00;3.10;;;18.90;76.50;;;;;;5095562;28;20958;-67
2021/07/08 03:09:47;;;;;;;5.90;3.60;;;18.90;76.40;;;;;;5095705;28;20467;-67
2021/07/08 03:12:15;;;;;;;4.90;2.60;;;18.90;76.60;;;;;;5095649;28;20440;-67
2021/07/08 03:14:41;;;;;;;4.47;2.60;;;18.90;76.70;;;;;;5095579;28;20494;-67
2021/07/08 03:17:08;;;;;;;4.97;3.10;;;18.90;77.00;;;;;;5095563;28;20446;-67
2021/07/08 03:19:35;;;;;;;4.90;3.77;;;18.90;77.30;;;;;;5095166;28;20463;-67
2021/07/08 03:22:03;;;;;;;13.67;3.40;;;18.90;77.60;;;;;;5096032;28;20480;-67
2021/07/08 03:24:30;;;;;;;4.60;3.30;;;18.90;77.80;;;;;;5095480;28;20447;-67
2021/07/08 03:26:57;;;;;;;6.73;3.60;;;18.90;77.60;;;;;;5095405;28;20439;-67
2021/07/08 03:29:24;;;;;;;6.53;3.30;;;18.90;77.60;;;;;;5095294;28;20468;-67
2021/07/08 03:31:50;;;;;;;4.40;2.63;;;18.90;77.60;;;;;;5095307;28;20436;-67
2021/07/08 03:34:17;;;;;;;4.47;2.87;;;18.90;77.70;;;;;;5095267;28;20440;-67
2021/07/08 03:36:44;;;;;;;7.10;4.00;;;18.90;77.70;;;;;;5095203;28;20443;-67
2021/07/08 03:39:12;;;;;;;3.90;3.00;;;18.90;77.80;;;;;;5094824;28;20469;-67
2021/07/08 03:41:39;;;;;;;3.43;3.13;;;18.90;77.80;;;;;;5094219;28;20471;-67
2021/07/08 03:44:06;;;;;;;3.40;3.10;;;18.80;77.60;;;;;;5095088;28;20444;-67
2021/07/08 03:46:33;;;;;;;4.23;2.90;;;18.90;77.70;;;;;;5094757;28;20995;-67
2021/07/08 03:48:59;;;;;;;3.40;3.00;;;18.80;77.50;;;;;;5094991;28;20460;-67
2021/07/08 03:51:26;;;;;;;5.47;3.30;;;18.80;77.70;;;;;;5094980;28;20451;-67
2021/07/08 03:53:53;;;;;;;4.63;3.40;;;18.80;77.80;;;;;;5094849;28;20459;-67
2021/07/08 03:56:21;;;;;;;10.70;3.87;;;18.80;77.70;;;;;;5094595;28;20930;-67
2021/07/08 03:58:48;;;;;;;7.13;3.23;;;18.80;77.80;;;;;;5094419;28;20463;-67
2021/07/08 04:01:14;;;;;;;6.53;3.30;;;18.80;78.00;;;;;;5094735;28;20432;-67
2021/07/08 04:03:41;;;;;;;4.83;3.03;;;18.80;78.00;;;;;;5094647;28;20571;-67
2021/07/08 04:06:08;;;;;;;5.87;2.80;;;18.80;78.10;;;;;;5094623;28;20444;-67
2021/07/08 04:08:35;;;;;;;5.60;3.30;;;18.70;78.10;;;;;;5094200;28;20475;-66
2021/07/08 04:11:02;;;;;;;6.73;3.00;;;18.80;78.50;;;;;;5094547;28;20455;-66
2021/07/08 04:13:30;;;;;;;6.43;2.83;;;18.80;78.70;;;;;;5094858;28;20451;-67
2021/07/08 04:15:57;;;;;;;5.57;3.17;;;18.80;78.50;;;;;;5094539;28;20793;-67
2021/07/08 04:18:23;;;;;;;4.77;3.20;;;18.80;78.50;;;;;;5094356;28;20459;-67
2021/07/08 04:20:50;;;;;;;8.40;3.60;;;18.80;78.70;;;;;;5094380;28;20448;-67
2021/07/08 04:23:17;;;;;;;8.23;3.60;;;18.80;78.70;;;;;;5094258;28;20460;-67
2021/07/08 04:25:44;;;;;;;6.60;3.63;;;18.80;78.80;;;;;;5094382;28;20444;-67
2021/07/08 04:28:12;;;;;;;5.23;3.40;;;18.80;78.80;;;;;;5094226;28;20830;-67
2021/07/08 04:30:40;;;;;;;4.70;3.60;;;18.80;78.80;;;;;;5094144;28;20462;-67
2021/07/08 04:33:07;;;;;;;6.67;3.23;;;18.80;78.90;;;;;;5094213;28;20808;-67
2021/07/08 04:35:37;;;;;;;6.43;3.63;;;18.80;78.70;;;;;;5094100;28;20447;-67
2021/07/08 04:38:05;;;;;;;5.60;3.50;;;18.90;78.70;;;;;;5094024;28;20463;-67
2021/07/08 04:40:32;;;;;;;3.80;3.00;;;18.90;78.90;;;;;;5093974;28;20444;-67
2021/07/08 04:42:59;;;;;;;7.43;3.90;;;18.90;79.10;;;;;;5093892;28;20463;-67
2021/07/08 04:45:26;;;;;;;5.80;3.50;;;19.00;79.20;;;;;;5093937;28;20462;-67
2021/07/08 04:47:54;;;;;;;6.07;3.30;;;19.00;79.30;;;;;;5093829;28;20794;-67
2021/07/08 04:50:22;;;;;;;9.03;3.60;;;19.10;79.70;;;;;;5093836;28;20440;-67
2021/07/08 04:52:50;;;;;;;4.73;3.20;;;19.10;79.60;;;;;;5093639;28;20443;-67
2021/07/08 04:55:19;;;;;;;4.20;2.87;;;19.10;79.80;;;;;;5093458;28;20938;-67
2021/07/08 04:57:46;;;;;;;4.33;3.20;;;19.20;80.00;;;;;;5093695;28;20450;-68
2021/07/08 05:00:14;;;;;;;5.17;3.87;;;19.20;80.00;;;;;;5093482;28;20477;-68
2021/07/08 05:02:42;;;;;;;6.30;3.40;;;19.30;80.20;;;;;;5093687;28;20528;-68
2021/07/08 05:05:13;;;;;;;11.23;3.50;;;19.30;80.10;;;;;;5093412;28;20439;-68
2021/07/08 05:07:40;;;;;;;6.40;3.40;;;19.30;80.00;;;;;;5093721;28;20881;-68
2021/07/08 05:10:09;;;;;;;5.67;3.33;;;19.40;80.00;;;;;;5093571;28;20447;-68
2021/07/08 05:12:36;;;;;;;4.93;3.60;;;19.40;80.30;;;;;;5093544;28;20446;-68
2021/07/08 05:15:03;;;;;;;5.00;4.03;;;19.50;80.40;;;;;;5093603;28;20424;-68
2021/07/08 05:17:30;;;;;;;7.43;3.63;;;19.50;80.40;;;;;;5093523;28;20455;-68
2021/07/08 05:19:57;;;;;;;8.73;4.30;;;19.60;80.50;;;;;;5093419;28;20463;-68
2021/07/08 05:22:25;;;;;;;4.73;4.33;;;19.60;80.30;;;;;;5093502;28;20484;-68
2021/07/08 05:24:52;;;;;;;8.57;4.97;;;19.70;79.80;;;;;;5093448;28;20432;-68
2021/07/08 05:27:19;;;;;;;9.07;5.30;;;19.70;79.50;;;;;;5093249;28;20447;-67
2021/07/08 05:29:48;;;;;;;4.80;4.37;;;19.80;80.00;;;;;;5092921;28;21011;-67
2021/07/08 05:32:15;;;;;;;8.00;5.37;;;19.80;79.90;;;;;;5092990;28;20480;-68
2021/07/08 05:34:42;;;;;;;5.83;4.13;;;19.90;80.20;;;;;;5093281;28;20436;-67
2021/07/08 05:37:09;;;;;;;5.20;3.90;;;19.90;80.50;;;;;;5093226;28;20443;-68
2021/07/08 05:39:38;;;;;;;4.40;3.30;;;20.00;80.80;;;;;;5093240;28;20472;-68
2021/07/08 05:42:05;;;;;;;5.87;3.53;;;20.00;80.50;;;;;;5093224;28;20475;-67
2021/07/08 05:44:32;;;;;;;5.03;3.60;;;20.00;80.60;;;;;;5093252;28;20812;-67
2021/07/08 05:46:59;;;;;;;10.53;3.90;;;20.10;80.80;;;;;;5093306;28;20436;-68
2021/07/08 05:49:26;;;;;;;4.97;3.43;;;20.10;80.70;;;;;;5093156;28;20468;-68
2021/07/08 05:51:52;;;;;;;9.10;3.90;;;20.10;80.00;;;;;;5093211;28;20470;-67
2021/07/08 05:54:19;;;;;;;7.27;4.30;;;20.20;78.90;;;;;;5092910;28;20450;-68
2021/07/08 05:56:47;;;;;;;7.20;4.20;;;20.20;77.80;;;;;;5093117;28;20808;-68
2021/07/08 05:59:14;;;;;;;7.20;4.70;;;20.20;77.10;;;;;;5093154;28;20463;-68
2021/07/08 06:01:40;;;;;;;10.63;4.57;;;20.20;77.00;;;;;;5092767;28;20782;-68
2021/07/08 06:04:07;;;;;;;9.53;3.83;;;20.20;77.20;;;;;;5092861;28;20926;-68
2021/07/08 06:06:34;;;;;;;8.67;4.40;;;20.10;77.20;;;;;;5097071;28;20443;-68
2021/07/08 06:09:01;;;;;;;9.10;4.33;;;20.20;77.80;;;;;;5097027;28;20491;-67
2021/07/08 06:11:27;;;;;;;13.07;3.90;;;20.20;78.00;;;;;;5096866;28;20443;-67
2021/07/08 06:13:55;;;;;;;11.67;4.53;;;20.20;78.90;;;;;;5096819;28;20767;-67
2021/07/08 06:16:22;;;;;;;15.47;5.07;;;20.20;79.10;;;;;;5096824;28;20432;-67
2021/07/08 06:18:49;;;;;;;11.73;5.30;;;20.10;79.80;;;;;;5096675;28;20467;-67
2021/07/08 06:21:16;;;;;;;16.93;6.07;;;20.10;80.50;;;;;;5096629;28;20470;-67
2021/07/08 06:23:43;;;;;;;16.53;4.87;;;20.10;80.70;;;;;;5096596;28;20478;-69
2021/07/08 06:26:10;;;;;;;14.03;4.70;;;20.10;81.00;;;;;;5096823;28;20440;-68
2021/07/08 06:28:37;;;;;;;14.73;5.80;;;20.10;81.70;;;;;;5097447;28;20912;-70
2021/07/08 06:31:24;;;;;;;15.60;4.90;;;20.10;81.40;;;;;;5097547;28;20511;-70
2021/07/08 06:36:57;;;;;;;10.27;5.53;;;20.40;81.70;;;;;;1974955;22;20712;-73
2021/07/08 06:39:24;;;;;;;13.90;4.57;;;20.50;81.50;;;;;;5076442;28;20460;-77
2021/07/08 06:41:50;;;;;;;9.37;4.77;;;20.50;79.40;;;;;;5076123;28;20448;-77
2021/07/08 06:44:17;;;;;;;12.60;4.10;;;20.60;79.00;;;;;;5076310;28;20433;-76
2021/07/08 06:46:50;;;;;;;18.30;4.27;;;20.80;79.00;;;;;;5076300;28;20464;-77
2021/07/08 06:49:17;;;;;;;10.37;4.10;;;21.00;78.90;;;;;;5104272;22;20454;-72
2021/07/08 06:51:44;;;;;;;16.03;4.33;;;21.20;77.30;;;;;;5096192;28;20799;-72
2021/07/08 06:54:10;;;;;;;12.43;3.80;;;21.50;76.70;;;;;;5096300;28;20427;-71
2021/07/08 06:56:42;;;;;;;10.90;4.10;;;21.60;75.60;;;;;;5103222;28;20420;-69
2021/07/08 06:59:09;;;;;;;10.03;4.00;;;21.80;74.50;;;;;;5108537;28;20435;-70
2021/07/08 07:01:36;;;;;;;13.73;3.73;;;22.00;73.20;;;;;;5095999;28;20855;-71
2021/07/08 07:04:04;;;;;;;19.70;4.17;;;22.20;72.30;;;;;;5095522;28;20967;-70
2021/07/08 07:06:31;;;;;;;14.70;4.33;;;22.30;72.00;;;;;;5095797;28;20463;-70
2021/07/08 07:08:58;;;;;;;10.53;4.17;;;22.50;70.30;;;;;;5095726;28;20467;-69
2021/07/08 07:11:25;;;;;;;12.87;4.47;;;22.50;69.60;;;;;;5095728;28;20444;-70
2021/07/08 07:17:48;;;;;;;5.80;3.57;;;22.60;68.50;;;;;;5090927;28;20448;-70
2021/07/08 07:20:47;;;;;;;9.00;4.07;;;22.70;69.50;;;;;;5095472;28;20464;-70
2021/07/08 07:23:25;;;;;;;5.90;3.17;;;22.80;68.10;;;;;;5095452;28;20472;-70
2021/07/08 07:26:02;;;;;;;3.73;2.80;;;22.80;66.90;;;;;;5095490;28;20471;-73
2021/07/08 07:28:38;;;;;;;9.70;3.57;;;22.80;66.70;;;;;;5096385;28;20531;-71
2021/07/08 07:31:16;;;;;;;8.53;3.07;;;22.70;66.50;;;;;;5095089;28;20463;-71
2021/07/08 07:33:51;;;;;;;5.50;3.37;;;22.70;68.40;;;;;;5095272;28;20537;-71
2021/07/08 07:36:19;;;;;;;6.30;3.60;;;22.90;68.00;;;;;;5095332;28;20444;-70
2021/07/08 07:38:47;;;;;;;3.83;3.07;;;22.90;68.50;;;;;;5095237;28;20440;-70
2021/07/08 07:41:14;;;;;;;6.87;3.23;;;23.00;67.80;;;;;;5095175;28;20550;-71
2021/07/08 07:43:40;;;;;;;9.93;3.60;;;22.90;68.20;;;;;;5094942;28;20529;-71
2021/07/08 07:46:07;;;;;;;4.40;3.57;;;22.90;66.20;;;;;;5095148;28;20822;-70
2021/07/08 07:48:34;;;;;;;6.40;3.23;;;23.10;67.60;;;;;;5094998;28;20443;-70
2021/07/08 07:51:01;;;;;;;7.10;3.80;;;23.20;65.60;;;;;;5094489;28;20550;-70
2021/07/08 07:53:29;;;;;;;5.90;3.60;;;23.30;66.00;;;;;;5094872;28;20473;-70
2021/07/08 07:55:56;;;;;;;4.03;3.20;;;23.30;66.60;;;;;;5094873;28;20450;-70
2021/07/08 07:58:27;;;;;;;4.57;3.80;;;23.40;66.60;;;;;;5094806;28;20431;-71
2021/07/08 08:00:55;;;;;;;5.23;3.57;;;23.50;66.80;;;;;;5094903;28;20468;-70
2021/07/08 08:03:22;;;;;;;4.13;3.80;;;23.60;66.10;;;;;;5094722;28;20547;-70
2021/07/08 08:08:26;;;;;;;4.20;3.67;;;23.60;66.70;;;;;;5094646;28;20854;-70
2021/07/08 08:08:42;;;;;;;5.77;3.50;;;23.70;65.60;;;;;;5094119;28;20464;-70
2021/07/08 08:11:10;;;;;;;5.57;3.23;;;23.70;64.60;;;;;;5095109;28;20468;-70
2021/07/08 08:13:37;;;;;;;6.17;3.70;;;23.90;64.10;;;;;;5094566;28;20435;-70
2021/07/08 08:16:06;;;;;;;4.60;3.47;;;23.90;62.10;;;;;;5094523;28;20521;-70
2021/07/08 08:18:34;;;;;;;7.60;4.07;;;24.00;63.30;;;;;;5094183;28;20889;-70
2021/07/08 08:21:01;;;;;;;7.30;3.80;;;24.10;63.50;;;;;;5094321;28;20479;-70
2021/07/08 08:23:28;;;;;;;5.77;3.70;;;24.30;62.90;;;;;;5094278;28;21011;-70
2021/07/08 08:25:57;;;;;;;7.07;4.00;;;24.50;62.20;;;;;;5094315;28;20424;-71
2021/07/08 08:28:24;;;;;;;4.97;3.17;;;24.60;59.90;;;;;;5093870;28;20428;-70
2021/07/08 08:30:51;;;;;;;3.77;3.10;;;24.80;59.60;;;;;;5094291;28;20460;-71
2021/07/08 08:33:18;;;;;;;8.83;3.43;;;25.00;59.70;;;;;;5093866;28;20921;-70
2021/07/08 08:35:44;;;;;;;4.73;2.63;;;25.30;58.90;;;;;;5094147;28;20431;-70
2021/07/08 08:38:11;;;;;;;3.43;3.20;;;25.50;58.10;;;;;;5094096;28;20789;-70
2021/07/08 08:40:38;;;;;;;3.67;2.73;;;25.70;59.10;;;;;;5094052;28;20479;-70
2021/07/08 08:43:06;;;;;;;6.37;3.13;;;26.00;58.80;;;;;;5094010;28;20472;-70
2021/07/08 08:45:33;;;;;;;2.63;2.43;;;26.30;58.00;;;;;;5093766;28;20944;-70
2021/07/08 08:48:02;;;;;;;3.00;2.70;;;26.60;57.00;;;;;;5093922;28;20846;-71
2021/07/08 08:50:31;;;;;;;4.97;3.10;;;26.80;56.70;;;;;;5093578;28;20475;-71
2021/07/08 08:52:58;;;;;;;4.00;3.30;;;27.00;56.20;;;;;;5093559;28;20795;-71
2021/07/08 08:55:25;;;;;;;5.60;2.63;;;27.20;55.50;;;;;;5093886;28;20424;-70
2021/07/08 08:57:52;;;;;;;6.10;3.00;;;27.30;55.00;;;;;;5093822;28;20455;-71
2021/07/08 09:00:54;;;;;;;6.30;3.30;;;27.50;51.90;;;;;;5093782;28;20832;-71
2021/07/08 09:03:23;;;;;;;5.90;3.03;;;27.70;51.00;;;;;;5093400;28;20968;-71
2021/07/08 09:05:59;;;;;;;5.23;2.57;;;27.80;50.90;;;;;;5093464;28;20439;-70
2021/07/08 09:08:26;;;;;;;4.10;2.63;;;27.90;51.10;;;;;;5093704;28;20797;-70
2021/07/08 09:11:13;;;;;;;3.73;2.33;;;28.30;51.50;;;;;;5093587;28;20460;-70
2021/07/08 09:13:52;;;;;;;4.00;2.77;;;28.50;51.00;;;;;;5093613;28;20492;-71
2021/07/08 09:16:22;;;;;;;7.10;3.13;;;28.60;49.60;;;;;;5093358;28;20450;-70
2021/07/08 09:19:00;;;;;;;7.13;2.97;;;28.80;48.80;;;;;;5093568;28;20443;-71
2021/07/08 09:21:29;;;;;;;7.07;3.00;;;28.80;50.30;;;;;;5093571;28;20432;-70
2021/07/08 09:24:23;;;;;;;5.90;2.60;;;28.90;49.00;;;;;;5093194;28;20460;-71
2021/07/08 09:26:58;;;;;;;7.03;2.70;;;28.90;49.60;;;;;;5057513;28;20451;-71
2021/07/08 09:29:26;;;;;;;4.13;2.73;;;29.00;49.70;;;;;;5093120;28;20990;-71
2021/07/08 09:31:58;;;;;;;3.00;2.00;;;29.10;48.80;;;;;;5093428;28;20439;-71
2021/07/08 09:34:25;;;;;;;3.60;2.57;;;29.30;47.90;;;;;;5093529;28;20424;-71
2021/07/08 09:37:10;;;;;;;4.90;2.33;;;29.60;47.10;;;;;;5093421;28;20443;-71
2021/07/08 09:39:39;;;;;;;8.90;3.20;;;30.00;47.30;;;;;;5094203;28;20463;-71
2021/07/08 09:42:07;;;;;;;6.00;2.77;;;30.30;45.60;;;;;;5097449;28;20439;-71
2021/07/08 09:44:35;;;;;;;9.23;2.77;;;30.50;45.50;;;;;;5097417;28;20470;-72
2021/07/08 09:47:03;;;;;;;3.27;2.50;;;30.70;44.20;;;;;;5097305;28;20432;-71
2021/07/08 09:49:30;;;;;;;4.87;2.30;;;30.80;44.10;;;;;;5096892;28;21016;-70
2021/07/08 09:51:58;;;;;;;4.23;2.90;;;30.70;43.00;;;;;;5097177;28;20439;-71
2021/07/08 09:57:45;;;;;;;7.13;2.47;;;30.30;43.90;;;;;;5062539;28;20431;-71
2021/07/08 10:00:33;;;;;;;4.67;2.40;;;30.20;41.70;;;;;;5097088;28;20467;-71
2021/07/08 10:03:02;;;;;;;6.40;2.97;;;30.30;43.00;;;;;;5096949;28;20530;-71
2021/07/08 10:05:30;;;;;;;7.60;3.10;;;30.50;44.20;;;;;;5097006;28;20443;-71
2021/07/08 10:07:59;;;;;;;8.30;2.70;;;30.70;42.90;;;;;;5097585;28;20820;-71
2021/07/08 10:10:25;;;;;;;3.73;2.37;;;30.50;42.50;;;;;;5096804;28;20538;-71
2021/07/08 10:12:52;;;;;;;7.47;3.37;;;30.50;42.50;;;;;;5096799;28;20440;-71
2021/07/08 10:15:19;;;;;;;12.30;3.17;;;30.60;41.80;;;;;;5096840;28;20439;-71
2021/07/08 10:17:46;;;;;;;5.10;2.30;;;30.70;41.70;;;;;;5096750;28;20466;-71
2021/07/08 10:20:16;;;;;;;15.30;3.27;;;30.70;43.00;;;;;;5096680;28;20463;-71
2021/07/08 10:22:43;;;;;;;7.50;2.43;;;30.90;42.00;;;;;;5096602;28;20528;-71
2021/07/08 10:25:12;;;;;;;4.43;2.30;;;30.80;41.60;;;;;;5096311;28;20464;-70
2021/07/08 10:27:41;;;;;;;3.70;1.97;;;30.60;41.00;;;;;;5096300;28;20924;-71
2021/07/08 10:30:09;;;;;;;4.50;2.17;;;30.60;41.50;;;;;;5096449;28;20470;-70
2021/07/08 10:32:37;;;;;;;3.40;2.40;;;30.80;41.30;;;;;;5096540;28;20439;-71
2021/07/08 10:35:04;;;;;;;5.40;2.20;;;31.00;40.30;;;;;;5096573;28;20420;-70
2021/07/08 10:37:36;;;;;;;4.20;2.23;;;31.00;41.00;;;;;;5096225;28;20431;-71
2021/07/08 10:40:05;;;;;;;8.10;2.37;;;31.00;39.60;;;;;;5096480;28;20522;-71
2021/07/08 10:42:43;;;;;;;5.77;2.00;;;31.10;40.20;;;;;;5095923;28;20448;-71
2021/07/08 10:45:46;;;;;;;7.87;2.70;;;31.10;39.30;;;;;;5096004;28;20991;-71
2021/07/08 10:48:14;;;;;;;6.43;2.60;;;31.20;40.00;;;;;;5082138;28;20467;-72
2021/07/08 10:50:45;;;;;;;4.63;2.57;;;31.50;40.90;;;;;;5095401;28;20479;-72
2021/07/08 10:53:24;;;;;;;6.00;2.33;;;31.80;38.30;;;;;;5096682;28;20523;-72
2021/07/08 10:55:54;;;;;;;3.53;2.20;;;32.00;39.30;;;;;;5095815;28;20920;-72
2021/07/08 10:58:39;;;;;;;5.97;1.97;;;32.10;38.90;;;;;;5096782;28;20500;-72
2021/07/08 11:01:08;;;;;;;6.23;3.03;;;32.10;38.00;;;;;;5096094;28;20470;-70
2021/07/08 11:03:41;;;;;;;6.93;2.60;;;32.00;39.20;;;;;;5096079;28;20469;-71
2021/07/08 11:06:16;;;;;;;6.47;2.47;;;32.00;39.60;;;;;;5096021;28;20439;-72
2021/07/08 11:09:18;;;;;;;4.97;2.43;;;31.80;38.90;;;;;;5096159;28;20431;-70
2021/07/08 11:12:07;;;;;;;3.90;2.50;;;31.20;39.30;;;;;;5084471;28;20512;-71
2021/07/08 11:14:35;;;;;;;4.77;2.23;;;30.80;40.80;;;;;;5095845;28;20449;-71
2021/07/08 11:17:23;;;;;;;4.33;2.33;;;30.70;41.00;;;;;;5095834;28;20790;-71
2021/07/08 11:19:51;;;;;;;4.80;2.33;;;30.50;40.90;;;;;;5090573;28;20471;-70
2021/07/08 11:22:34;;;;;;;3.73;2.80;;;30.40;42.00;;;;;;5095825;28;20444;-72
2021/07/08 11:25:10;;;;;;;4.03;2.20;;;30.20;43.10;;;;;;5095476;28;20464;-71
2021/07/08 11:27:47;;;;;;;4.63;2.50;;;30.10;42.40;;;;;;5095656;28;20428;-71
2021/07/08 11:30:29;;;;;;;3.10;1.87;;;29.90;43.80;;;;;;5095073;28;20452;-71
2021/07/08 11:33:06;;;;;;;2.80;1.73;;;29.00;44.30;;;;;;5095419;28;20428;-71
2021/07/08 11:35:37;;;;;;;2.73;2.10;;;28.60;46.70;;;;;;5095378;28;20432;-71
2021/07/08 11:38:07;;;;;;;4.27;2.13;;;28.60;47.80;;;;;;5095288;28;20436;-71
2021/07/08 11:40:38;;;;;;;3.37;2.13;;;28.90;47.30;;;;;;5094770;28;20466;-70
2021/07/08 11:43:17;;;;;;;4.00;2.27;;;29.10;44.70;;;;;;5095157;28;20435;-70
2021/07/08 11:45:44;;;;;;;3.63;2.23;;;28.90;45.20;;;;;;5094687;28;20987;-71
2021/07/08 11:48:11;;;;;;;2.63;2.37;;;28.90;46.80;;;;;;5094748;28;20430;-71
2021/07/08 11:50:39;;;;;;;5.10;2.07;;;29.00;46.50;;;;;;5094559;28;20510;-71
2021/07/08 11:53:09;;;;;;;5.87;2.40;;;29.00;43.80;;;;;;5094905;28;20448;-71
2021/07/08 11:55:39;;;;;;;4.80;2.50;;;28.90;45.00;;;;;;5094864;28;20433;-71
2021/07/08 11:58:07;;;;;;;3.07;2.10;;;28.90;45.20;;;;;;5094802;28;20451;-71
2021/07/08 12:00:39;;;;;;;2.30;2.10;;;28.90;45.00;;;;;;5094822;28;20471;-72
2021/07/08 12:03:24;;;;;;;2.20;1.93;;;29.00;43.60;;;;;;5094069;28;20510;-71
2021/07/08 12:05:52;;;;;;;3.53;2.23;;;29.20;43.20;;;;;;5094650;28;20463;-72
2021/07/08 12:08:24;;;;;;;5.30;2.70;;;29.50;44.10;;;;;;5094721;28;20432;-73
2021/07/08 12:11:06;;;;;;;4.87;3.00;;;29.50;45.20;;;;;;5094521;28;20546;-72
2021/07/08 12:13:35;;;;;;;5.27;3.20;;;29.60;45.20;;;;;;5094565;28;20489;-73
2021/07/08 12:16:05;;;;;;;4.30;3.23;;;29.40;45.40;;;;;;5094614;28;20424;-72
2021/07/08 12:18:42;;;;;;;7.00;3.30;;;29.10;45.20;;;;;;5094547;28;20553;-72
2021/07/08 12:21:20;;;;;;;3.63;2.60;;;28.80;47.30;;;;;;5094390;28;20466;-72
2021/07/08 12:23:47;;;;;;;4.47;2.40;;;28.50;48.00;;;;;;5094265;28;20439;-72
2021/07/08 12:26:27;;;;;;;4.03;3.10;;;28.20;47.50;;;;;;5094487;28;20465;-73
2021/07/08 12:29:24;;;;;;;4.17;3.00;;;27.90;49.00;;;;;;5094336;28;20792;-72
2021/07/08 12:31:54;;;;;;;3.80;2.77;;;27.60;48.30;;;;;;5094078;28;20432;-71
2021/07/08 12:34:23;;;;;;;4.87;2.80;;;27.40;49.40;;;;;;5094260;28;20428;-72
2021/07/08 12:37:11;;;;;;;7.10;3.03;;;27.30;49.90;;;;;;5094577;28;20427;-72
2021/07/08 12:39:37;;;;;;;3.40;2.87;;;27.40;50.80;;;;;;5094007;28;20459;-71
2021/07/08 12:42:07;;;;;;;8.93;3.70;;;27.60;49.70;;;;;;5094046;28;20451;-71
2021/07/08 12:44:33;;;;;;;5.80;3.37;;;27.70;49.80;;;;;;5093935;28;20484;-71
2021/07/08 12:47:00;;;;;;;3.90;3.30;;;27.70;48.60;;;;;;5093694;28;20968;-71
2021/07/08 12:49:30;;;;;;;4.20;2.57;;;27.60;49.20;;;;;;5094479;28;20491;-71
2021/07/08 12:51:57;;;;;;;2.20;2.10;;;27.50;50.50;;;;;;5093595;28;20448;-72
2021/07/08 12:54:25;;;;;;;6.60;2.57;;;27.50;50.90;;;;;;5093552;28;20945;-72
2021/07/08 12:57:07;;;;;;;2.53;2.27;;;27.50;50.90;;;;;;5093841;28;20481;-71
2021/07/08 12:59:34;;;;;;;4.03;2.40;;;27.50;49.50;;;;;;5094616;28;20452;-71
2021/07/08 13:02:00;;;;;;;2.77;2.40;;;27.60;49.00;;;;;;5093746;28;20443;-71
2021/07/08 13:04:32;;;;;;;6.30;2.50;;;27.70;49.00;;;;;;5093310;28;21000;-71
2021/07/08 13:07:00;;;;;;;5.60;2.60;;;27.70;48.80;;;;;;5093572;28;20435;-72